Time;durP1;ratioP1;P1;durP2;ratioP2;P2;SDS_P1;SDS_P2;PMS_P1;PMS_P2;Temp;Humidity;BMP_temperature;BMP_pressure;BME280_temperature;BME280_humidity;BME280_pressure;Samples;Min_cycle;Max_cycle;Signal;HPM_P1;HPM_P2
2021/01/01 00:01:38;;;;;;;36.75;22.65;;;4.20;91.40;;;;;;5018756;28;20037;-72
2021/01/01 00:04:05;;;;;;;40.13;22.88;;;4.20;91.30;;;;;;5038046;28;20025;-72
2021/01/01 00:06:31;;;;;;;39.55;22.48;;;4.20;91.30;;;;;;5035580;28;20065;-72
2021/01/01 00:08:57;;;;;;;38.88;23.00;;;4.10;91.40;;;;;;5036523;28;20021;-72
2021/01/01 00:11:23;;;;;;;41.15;22.55;;;4.10;91.50;;;;;;5029305;28;20029;-72
2021/01/01 00:13:49;;;;;;;39.85;21.60;;;4.00;91.50;;;;;;5034242;28;20098;-72
2021/01/01 00:16:15;;;;;;;41.85;23.58;;;4.00;91.60;;;;;;5035515;28;20057;-72
2021/01/01 00:18:42;;;;;;;40.63;23.05;;;4.00;91.50;;;;;;5036613;28;20037;-72
2021/01/01 00:21:08;;;;;;;37.35;21.23;;;4.00;91.40;;;;;;5036810;28;20021;-71
2021/01/01 00:23:35;;;;;;;38.80;22.23;;;4.00;91.50;;;;;;5034144;28;20104;-71
2021/01/01 00:26:01;;;;;;;41.63;24.85;;;4.00;91.60;;;;;;5032633;28;20025;-72
2021/01/01 00:28:27;;;;;;;42.10;22.75;;;4.00;91.60;;;;;;5035293;28;20029;-73
2021/01/01 00:30:53;;;;;;;40.03;22.08;;;4.00;91.40;;;;;;5034780;28;20484;-72
2021/01/01 00:33:19;;;;;;;41.53;21.88;;;4.00;91.60;;;;;;5037445;28;20055;-72
2021/01/01 00:35:46;;;;;;;39.92;22.42;;;4.00;91.50;;;;;;5036360;28;20057;-74
2021/01/01 00:38:12;;;;;;;36.03;20.23;;;4.00;91.50;;;;;;5037728;28;20032;-72
2021/01/01 00:40:38;;;;;;;35.72;19.83;;;4.00;91.60;;;;;;5033458;28;21043;-73
2021/01/01 00:43:04;;;;;;;32.90;19.13;;;4.00;91.70;;;;;;5037761;28;20025;-73
2021/01/01 00:45:29;;;;;;;34.17;18.38;;;4.00;91.70;;;;;;5036336;28;20084;-73
2021/01/01 00:47:55;;;;;;;83.32;50.60;;;3.90;91.70;;;;;;5036133;28;20473;-73
2021/01/01 00:50:21;;;;;;;33.45;19.33;;;3.90;91.60;;;;;;5020831;28;20021;-73
2021/01/01 00:52:47;;;;;;;30.42;17.27;;;3.90;91.50;;;;;;5038777;28;20364;-73
2021/01/01 00:55:12;;;;;;;31.42;17.20;;;4.00;91.70;;;;;;5027851;28;20038;-74
2021/01/01 00:57:38;;;;;;;30.42;17.60;;;3.90;91.50;;;;;;5038031;28;20029;-72
2021/01/01 01:00:08;;;;;;;27.05;14.48;;;3.90;91.50;;;;;;5032214;28;20035;-72
2021/01/01 01:02:34;;;;;;;30.67;15.93;;;3.90;91.70;;;;;;5018276;28;20044;-76
2021/01/01 01:05:00;;;;;;;26.33;14.98;;;3.90;91.50;;;;;;5035703;28;20025;-76
2021/01/01 01:07:25;;;;;;;25.90;14.52;;;3.90;91.50;;;;;;5033163;28;20024;-72
2021/01/01 01:09:52;;;;;;;26.92;14.55;;;3.90;91.40;;;;;;5021523;28;20022;-75
2021/01/01 01:12:18;;;;;;;28.35;15.27;;;3.90;91.30;;;;;;5018518;28;20045;-74
2021/01/01 01:14:45;;;;;;;24.83;14.30;;;3.90;91.30;;;;;;5035705;28;20442;-73
2021/01/01 01:17:13;;;;;;;26.48;15.05;;;3.90;91.30;;;;;;5032865;28;20025;-74
2021/01/01 01:19:39;;;;;;;26.02;15.13;;;3.90;91.10;;;;;;5035801;28;20021;-73
2021/01/01 01:22:04;;;;;;;29.58;16.33;;;3.90;91.10;;;;;;5042046;28;20113;-72
2021/01/01 01:24:30;;;;;;;29.02;16.33;;;3.90;91.20;;;;;;5036059;28;20025;-72
2021/01/01 01:26:56;;;;;;;25.00;14.85;;;4.00;91.10;;;;;;5034170;28;20498;-73
2021/01/01 01:29:21;;;;;;;31.48;17.17;;;4.00;91.10;;;;;;5035506;28;20037;-73
2021/01/01 01:31:47;;;;;;;27.35;15.57;;;4.00;91.00;;;;;;5036839;28;20376;-73
2021/01/01 01:34:13;;;;;;;33.33;19.75;;;4.00;91.00;;;;;;5037625;28;20029;-72
2021/01/01 01:36:38;;;;;;;30.42;17.17;;;4.00;90.80;;;;;;5017588;28;20025;-72
2021/01/01 01:39:04;;;;;;;26.02;14.77;;;4.00;90.90;;;;;;5035717;28;20112;-72
2021/01/01 01:41:30;;;;;;;25.25;14.55;;;3.90;90.80;;;;;;5034912;28;20060;-73
2021/01/01 01:43:55;;;;;;;27.10;14.63;;;4.00;90.70;;;;;;5037632;28;20033;-73
2021/01/01 01:46:22;;;;;;;23.10;13.70;;;4.00;90.80;;;;;;5020052;28;20022;-73
2021/01/01 01:48:48;;;;;;;25.75;14.05;;;3.90;90.70;;;;;;5017774;28;20026;-73
2021/01/01 01:51:14;;;;;;;23.70;13.88;;;4.00;90.80;;;;;;5019740;28;20030;-72
2021/01/01 01:53:44;;;;;;;26.02;14.05;;;3.90;90.90;;;;;;5041384;22;20049;-76
2021/01/01 01:56:11;;;;;;;24.38;13.45;;;3.90;90.80;;;;;;5021739;28;20028;-77
2021/01/01 01:58:38;;;;;;;23.92;13.30;;;3.90;90.80;;;;;;5037405;28;20048;-78
2021/01/01 02:01:04;;;;;;;26.55;13.23;;;3.90;90.80;;;;;;5020640;28;20097;-78
2021/01/01 02:03:32;;;;;;;26.10;14.18;;;3.90;90.70;;;;;;5014386;28;20038;-77
2021/01/01 02:05:59;;;;;;;26.50;14.35;;;3.90;91.00;;;;;;5036845;28;20072;-78
2021/01/01 02:08:25;;;;;;;24.70;13.98;;;3.90;90.80;;;;;;5003802;28;20073;-78
2021/01/01 02:10:55;;;;;;;23.80;14.13;;;3.90;90.90;;;;;;5015447;28;20029;-78
2021/01/01 02:13:22;;;;;;;23.63;13.43;;;3.90;90.80;;;;;;5018624;28;20022;-78
2021/01/01 02:15:48;;;;;;;28.25;13.93;;;3.90;90.90;;;;;;5019266;28;20025;-77
2021/01/01 02:18:39;;;;;;;25.38;14.20;;;3.90;90.90;;;;;;5021477;28;20528;-78
2021/01/01 02:21:06;;;;;;;27.70;13.33;;;3.90;90.70;;;;;;5002245;28;20035;-76
2021/01/01 02:23:33;;;;;;;28.00;14.40;;;4.00;90.60;;;;;;5019205;28;20299;-78
2021/01/01 02:25:59;;;;;;;30.20;15.20;;;4.00;90.50;;;;;;5020129;28;20029;-79
2021/01/01 02:28:24;;;;;;;27.35;13.95;;;4.00;90.50;;;;;;5021423;28;20076;-76
2021/01/01 02:30:50;;;;;;;23.63;13.57;;;4.00;90.60;;;;;;5018953;28;20037;-78
2021/01/01 02:33:16;;;;;;;26.55;14.98;;;3.90;90.70;;;;;;5015375;28;20031;-76
2021/01/01 02:35:42;;;;;;;27.30;14.65;;;3.90;90.80;;;;;;5004511;28;20044;-77
2021/01/01 02:38:08;;;;;;;26.83;14.80;;;3.90;90.80;;;;;;5000518;28;20046;-77
2021/01/01 02:40:34;;;;;;;26.85;14.38;;;3.90;90.80;;;;;;5020557;28;20112;-77
2021/01/01 02:43:00;;;;;;;26.95;14.30;;;4.00;90.80;;;;;;5006380;28;20126;-77
2021/01/01 02:45:26;;;;;;;30.27;15.30;;;4.00;90.70;;;;;;5005986;28;20033;-77
2021/01/01 02:47:52;;;;;;;29.23;15.60;;;4.00;90.70;;;;;;5021654;28;20460;-77
2021/01/01 02:50:18;;;;;;;27.55;14.70;;;3.90;90.70;;;;;;5006924;28;20053;-78
2021/01/01 02:52:44;;;;;;;29.08;15.45;;;3.90;90.80;;;;;;5009858;28;20525;-77
2021/01/01 02:55:11;;;;;;;29.65;15.23;;;3.90;90.90;;;;;;5029852;28;20037;-77
2021/01/01 02:57:37;;;;;;;30.80;16.33;;;3.90;90.90;;;;;;5024572;28;20021;-77
2021/01/01 03:00:06;;;;;;;29.60;16.35;;;3.90;90.80;;;;;;5021030;28;20033;-77
2021/01/01 03:02:32;;;;;;;25.67;14.85;;;3.90;90.90;;;;;;5004649;28;20030;-77
2021/01/01 03:05:01;;;;;;;28.17;14.80;;;3.90;90.90;;;;;;5005415;28;20045;-77
2021/01/01 03:07:26;;;;;;;26.88;14.90;;;3.90;91.00;;;;;;5019805;28;20508;-77
2021/01/01 03:09:55;;;;;;;26.50;14.48;;;3.90;90.90;;;;;;5039833;28;20009;-77
2021/01/01 03:12:20;;;;;;;28.48;15.43;;;3.90;90.80;;;;;;5004911;28;20126;-77
2021/01/01 03:14:46;;;;;;;30.75;15.68;;;3.90;90.90;;;;;;5021286;28;20061;-76
2021/01/01 03:17:11;;;;;;;28.58;15.02;;;3.90;90.90;;;;;;5021329;28;20036;-77
2021/01/01 03:19:37;;;;;;;26.65;15.27;;;3.90;90.90;;;;;;5005201;28;20040;-77
2021/01/01 03:22:03;;;;;;;29.10;15.38;;;3.90;90.90;;;;;;5004548;28;20068;-77
2021/01/01 03:24:29;;;;;;;28.08;15.18;;;3.90;90.90;;;;;;5022084;28;20113;-78
2021/01/01 03:26:54;;;;;;;25.92;14.45;;;3.90;91.10;;;;;;5021115;28;20059;-76
2021/01/01 03:29:20;;;;;;;32.05;15.90;;;3.90;91.00;;;;;;5021228;28;20026;-77
2021/01/01 03:31:45;;;;;;;28.15;14.82;;;3.90;91.00;;;;;;5021478;28;20064;-77
2021/01/01 03:34:11;;;;;;;33.33;16.50;;;3.90;91.00;;;;;;5019501;28;20087;-77
2021/01/01 03:36:37;;;;;;;30.70;15.40;;;4.00;90.80;;;;;;5004231;28;20381;-77
2021/01/01 03:39:03;;;;;;;33.00;16.58;;;4.00;90.90;;;;;;5020404;28;20029;-77
2021/01/01 03:41:29;;;;;;;27.88;14.63;;;4.00;90.90;;;;;;5020224;28;20038;-77
2021/01/01 03:43:55;;;;;;;29.63;15.65;;;4.00;90.90;;;;;;5003589;28;20400;-77
2021/01/01 03:46:20;;;;;;;26.42;14.65;;;4.00;90.90;;;;;;5020651;28;20026;-77
2021/01/01 03:48:46;;;;;;;27.80;15.40;;;3.90;91.00;;;;;;5021394;28;20388;-76
2021/01/01 03:51:12;;;;;;;27.25;14.43;;;3.90;91.10;;;;;;5022763;28;20026;-78
2021/01/01 03:53:37;;;;;;;30.67;16.23;;;3.90;91.10;;;;;;5004463;28;20117;-77
2021/01/01 03:56:03;;;;;;;26.38;14.70;;;3.90;91.10;;;;;;5003603;28;20029;-78
2021/01/01 03:58:29;;;;;;;35.60;16.13;;;3.90;91.20;;;;;;5003227;28;20504;-77
2021/01/01 04:00:55;;;;;;;30.17;15.15;;;3.90;91.20;;;;;;5004588;28;20030;-77
2021/01/01 04:03:20;;;;;;;29.05;15.55;;;3.90;91.20;;;;;;5021167;28;20033;-77
2021/01/01 04:05:46;;;;;;;27.10;14.90;;;3.90;91.30;;;;;;5022846;28;20504;-77
2021/01/01 04:08:12;;;;;;;30.48;15.68;;;4.00;91.10;;;;;;5020611;28;20028;-77
2021/01/01 04:10:39;;;;;;;34.05;17.83;;;3.90;91.20;;;;;;5007309;28;20030;-77
2021/01/01 04:13:05;;;;;;;28.30;14.88;;;3.90;91.30;;;;;;5003645;28;20576;-78
2021/01/01 04:15:31;;;;;;;30.23;16.20;;;3.90;91.20;;;;;;5019394;28;20037;-77
2021/01/01 04:17:56;;;;;;;25.85;15.23;;;4.00;91.20;;;;;;5021251;28;20195;-77
2021/01/01 04:20:22;;;;;;;30.02;16.60;;;4.00;91.20;;;;;;5006987;28;20490;-77
2021/01/01 04:22:48;;;;;;;40.85;16.75;;;3.90;91.20;;;;;;5022341;28;20026;-78
2021/01/01 04:25:13;;;;;;;30.20;15.98;;;3.90;91.20;;;;;;5021240;28;20109;-78
2021/01/01 04:27:39;;;;;;;32.95;17.13;;;3.90;91.40;;;;;;5002790;28;20054;-77
2021/01/01 04:30:05;;;;;;;31.30;16.48;;;3.90;91.30;;;;;;5001233;28;20027;-77
2021/01/01 04:32:31;;;;;;;32.50;17.15;;;3.90;91.30;;;;;;5021976;28;20022;-77
2021/01/01 04:34:56;;;;;;;29.38;15.70;;;3.90;91.30;;;;;;5002114;28;20041;-77
2021/01/01 04:37:22;;;;;;;29.83;17.05;;;3.90;91.40;;;;;;5004291;28;20264;-77
2021/01/01 04:39:48;;;;;;;31.35;16.83;;;3.90;91.60;;;;;;5003070;28;20026;-78
2021/01/01 04:42:15;;;;;;;33.50;18.70;;;3.90;91.20;;;;;;5018479;28;20197;-78
2021/01/01 04:44:41;;;;;;;31.55;16.65;;;3.90;91.30;;;;;;5003097;28;20045;-77
2021/01/01 04:47:08;;;;;;;29.80;17.23;;;3.90;91.30;;;;;;5016067;28;20061;-77
2021/01/01 04:49:34;;;;;;;38.22;19.15;;;3.90;91.40;;;;;;5019811;28;20022;-77
2021/01/01 04:52:02;;;;;;;34.13;17.52;;;3.90;91.40;;;;;;5005607;28;20104;-77
2021/01/01 04:54:32;;;;;;;38.42;18.92;;;3.80;91.30;;;;;;5005731;28;20097;-77
2021/01/01 04:56:58;;;;;;;35.63;18.55;;;3.90;91.30;;;;;;5018868;28;20089;-77
2021/01/01 04:59:24;;;;;;;38.47;19.80;;;3.90;91.30;;;;;;5021130;28;20065;-77
2021/01/01 05:01:49;;;;;;;36.55;18.70;;;3.90;91.30;;;;;;4999668;28;20493;-78
2021/01/01 05:04:15;;;;;;;36.55;18.77;;;3.80;91.40;;;;;;5000483;28;20088;-77
2021/01/01 05:06:42;;;;;;;35.38;18.77;;;3.80;91.40;;;;;;5002548;28;20022;-78
2021/01/01 05:09:10;;;;;;;33.63;18.40;;;3.80;91.50;;;;;;5003008;28;20037;-77
2021/01/01 05:11:36;;;;;;;36.72;19.42;;;3.80;91.40;;;;;;5020472;28;20025;-77
2021/01/01 05:14:03;;;;;;;42.75;19.90;;;3.80;91.50;;;;;;5019828;28;20410;-77
2021/01/01 05:16:29;;;;;;;39.88;20.02;;;3.80;91.40;;;;;;5003223;28;20076;-77
2021/01/01 05:18:55;;;;;;;32.75;17.95;;;3.80;91.50;;;;;;5020259;28;20056;-77
2021/01/01 05:21:26;;;;;;;36.05;19.20;;;3.80;91.50;;;;;;5015427;28;20505;-77
2021/01/01 05:23:55;;;;;;;39.67;20.05;;;3.80;91.50;;;;;;5019030;28;20042;-77
2021/01/01 05:26:28;;;;;;;44.10;21.20;;;3.80;91.60;;;;;;5014791;28;20029;-76
2021/01/01 05:29:06;;;;;;;39.15;19.80;;;3.80;91.60;;;;;;5000789;28;20018;-76
2021/01/01 05:31:41;;;;;;;41.25;20.60;;;3.80;91.60;;;;;;5015495;28;20025;-77
2021/01/01 05:34:15;;;;;;;42.10;20.13;;;3.80;91.60;;;;;;5017920;28;20117;-77
2021/01/01 05:36:46;;;;;;;43.00;20.27;;;3.90;91.60;;;;;;5018261;28;20621;-77
2021/01/01 05:39:17;;;;;;;44.00;20.40;;;3.80;91.50;;;;;;5015016;28;20076;-76
2021/01/01 05:41:45;;;;;;;42.72;20.40;;;3.80;91.60;;;;;;5017822;28;20064;-77
2021/01/01 05:44:19;;;;;;;41.85;21.17;;;3.80;91.80;;;;;;5017257;28;20030;-78
2021/01/01 05:46:56;;;;;;;45.90;22.25;;;3.70;91.80;;;;;;5015830;28;20034;-77
2021/01/01 05:49:24;;;;;;;39.75;19.27;;;3.80;91.80;;;;;;5017001;28;20029;-76
2021/01/01 05:52:12;;;;;;;39.42;21.02;;;3.80;91.90;;;;;;5017463;28;20048;-77
2021/01/01 05:54:40;;;;;;;40.40;20.38;;;3.80;91.90;;;;;;5001800;28;20084;-76
2021/01/01 05:57:07;;;;;;;39.30;19.88;;;3.80;91.90;;;;;;5020738;28;20030;-76
2021/01/01 05:59:38;;;;;;;38.65;19.40;;;3.80;91.90;;;;;;5017270;28;20055;-76
2021/01/01 06:02:05;;;;;;;40.83;20.88;;;3.80;91.80;;;;;;5002259;28;20041;-77
2021/01/01 06:04:32;;;;;;;38.45;18.70;;;3.80;91.70;;;;;;4997648;28;20037;-75
2021/01/01 06:07:01;;;;;;;43.13;19.85;;;3.80;91.90;;;;;;5017699;28;20109;-76
2021/01/01 06:09:29;;;;;;;43.53;21.17;;;3.80;92.00;;;;;;5017086;28;20032;-76
2021/01/01 06:12:11;;;;;;;45.53;20.17;;;3.80;91.80;;;;;;5016566;28;20025;-77
2021/01/01 06:14:42;;;;;;;38.50;17.92;;;3.80;91.80;;;;;;4999583;28;20022;-76
2021/01/01 06:17:13;;;;;;;35.67;18.02;;;3.80;91.90;;;;;;5021734;28;20021;-76
2021/01/01 06:19:49;;;;;;;40.72;19.08;;;3.80;92.10;;;;;;5003197;28;20520;-76
2021/01/01 06:22:15;;;;;;;40.85;19.20;;;3.80;92.00;;;;;;5019864;28;20142;-76
2021/01/01 06:24:50;;;;;;;40.83;20.15;;;3.70;92.00;;;;;;5020406;28;20038;-77
2021/01/01 06:27:17;;;;;;;40.13;18.88;;;3.70;92.10;;;;;;5019373;28;20514;-76
2021/01/01 06:29:48;;;;;;;41.38;20.48;;;3.70;92.20;;;;;;5020213;28;20033;-76
2021/01/01 06:32:18;;;;;;;36.58;18.67;;;3.70;92.00;;;;;;5005314;28;20026;-77
2021/01/01 06:34:44;;;;;;;38.88;19.58;;;3.70;92.10;;;;;;5005143;28;20030;-76
2021/01/01 06:37:37;;;;;;;38.63;19.65;;;3.80;92.00;;;;;;5022883;28;20021;-77
2021/01/01 06:40:04;;;;;;;44.00;20.70;;;3.70;92.00;;;;;;5005160;28;20025;-76
2021/01/01 06:42:49;;;;;;;41.92;22.00;;;3.60;92.10;;;;;;5004821;28;20029;-77
2021/01/01 06:45:40;;;;;;;42.22;20.20;;;3.60;92.30;;;;;;5002650;28;20030;-76
2021/01/01 06:48:06;;;;;;;41.78;20.73;;;3.60;92.30;;;;;;5000896;28;20030;-75
2021/01/01 06:50:42;;;;;;;46.13;22.08;;;3.60;92.30;;;;;;5002819;28;20030;-77
2021/01/01 06:53:13;;;;;;;44.67;20.95;;;3.70;92.30;;;;;;5003827;28;20026;-76
2021/01/01 06:55:40;;;;;;;45.47;21.00;;;3.60;92.10;;;;;;5004604;28;20500;-76
2021/01/01 06:58:07;;;;;;;46.03;22.10;;;3.60;92.10;;;;;;5019988;28;20021;-76
2021/01/01 07:00:45;;;;;;;48.78;20.70;;;3.70;92.20;;;;;;5017772;28;20034;-76
2021/01/01 07:03:29;;;;;;;47.50;23.52;;;3.60;92.10;;;;;;5002493;28;20493;-76
2021/01/01 07:05:56;;;;;;;46.72;22.00;;;3.60;92.20;;;;;;5001636;28;20033;-78
2021/01/01 07:08:42;;;;;;;50.47;22.90;;;3.60;92.20;;;;;;5020734;28;20030;-78
2021/01/01 07:11:11;;;;;;;43.95;21.25;;;3.60;92.30;;;;;;5038583;28;20030;-78
2021/01/01 07:13:40;;;;;;;47.65;21.48;;;3.60;92.20;;;;;;5022085;28;20121;-76
2021/01/01 07:16:05;;;;;;;42.30;20.63;;;3.70;92.10;;;;;;5017276;28;20057;-76
2021/01/01 07:18:31;;;;;;;48.72;21.63;;;3.70;92.10;;;;;;5019153;28;20468;-76
2021/01/01 07:21:00;;;;;;;46.13;21.25;;;3.60;92.10;;;;;;5020134;28;20365;-76
2021/01/01 07:23:29;;;;;;;49.33;22.88;;;3.60;92.20;;;;;;5020487;28;20041;-75
2021/01/01 07:25:56;;;;;;;43.78;20.17;;;3.60;92.40;;;;;;5019886;28;20026;-77
2021/01/01 07:28:27;;;;;;;44.15;21.50;;;3.50;92.40;;;;;;5015952;28;20037;-76
2021/01/01 07:30:54;;;;;;;39.17;19.92;;;3.60;92.40;;;;;;5017579;28;20022;-77
2021/01/01 07:33:20;;;;;;;46.85;21.13;;;3.60;92.40;;;;;;5002936;28;20065;-77
2021/01/01 07:35:53;;;;;;;45.47;20.35;;;3.60;92.30;;;;;;5021996;28;20036;-76
2021/01/01 07:38:19;;;;;;;43.47;20.05;;;3.60;92.40;;;;;;5017760;28;20017;-76
2021/01/01 07:40:46;;;;;;;46.03;22.20;;;3.60;92.30;;;;;;5021032;28;20098;-76
2021/01/01 07:43:12;;;;;;;44.17;22.20;;;3.60;92.30;;;;;;5019732;28;20026;-77
2021/01/01 07:45:38;;;;;;;45.55;21.85;;;3.50;92.50;;;;;;5001368;28;20080;-77
2021/01/01 07:48:04;;;;;;;48.03;23.08;;;3.50;92.50;;;;;;5001967;28;20022;-76
2021/01/01 07:50:34;;;;;;;46.33;21.27;;;3.50;92.60;;;;;;5020373;28;20028;-77
2021/01/01 07:53:10;;;;;;;44.97;20.98;;;3.50;92.50;;;;;;5020812;28;20030;-78
2021/01/01 07:55:37;;;;;;;40.05;20.60;;;3.50;92.50;;;;;;5022421;28;20627;-78
2021/01/01 07:58:07;;;;;;;44.05;20.92;;;3.40;92.60;;;;;;5020415;28;20451;-78
2021/01/01 08:00:35;;;;;;;46.05;20.83;;;3.60;92.50;;;;;;5024131;28;20094;-78
2021/01/01 08:03:02;;;;;;;47.38;20.77;;;3.50;92.50;;;;;;5004867;28;20038;-78
2021/01/01 08:05:28;;;;;;;36.92;19.70;;;3.50;92.50;;;;;;5006168;28;20030;-79
2021/01/01 08:07:54;;;;;;;41.05;21.02;;;3.50;92.40;;;;;;5027939;28;20112;-79
2021/01/01 08:10:33;;;;;;;46.88;21.15;;;3.50;92.40;;;;;;5030610;28;20029;-79
2021/01/01 08:12:59;;;;;;;43.97;21.17;;;3.50;92.30;;;;;;5028603;28;20065;-79
2021/01/01 08:15:32;;;;;;;51.30;22.20;;;3.50;92.50;;;;;;5028713;28;20080;-78
2021/01/01 08:18:15;;;;;;;44.88;22.02;;;3.50;92.50;;;;;;5027732;28;20113;-82
2021/01/01 08:20:46;;;;;;;45.30;21.20;;;3.50;92.50;;;;;;5014904;28;20095;-78
2021/01/01 08:23:15;;;;;;;40.55;20.40;;;3.50;92.60;;;;;;5009484;28;20029;-78
2021/01/01 08:25:41;;;;;;;47.50;22.70;;;3.50;92.30;;;;;;5042950;28;20029;-76
2021/01/01 08:28:08;;;;;;;44.50;21.15;;;3.50;92.40;;;;;;5032478;28;20473;-78
2021/01/01 08:30:36;;;;;;;45.70;22.55;;;3.50;92.50;;;;;;5027512;28;20025;-79
2021/01/01 08:33:04;;;;;;;42.65;20.90;;;3.50;92.50;;;;;;5023893;28;20052;-79
2021/01/01 08:35:30;;;;;;;43.47;21.00;;;3.50;92.50;;;;;;5022300;28;20097;-79
2021/01/01 08:37:56;;;;;;;46.97;22.00;;;3.50;92.60;;;;;;5029040;28;20064;-79
2021/01/01 08:40:22;;;;;;;45.25;22.42;;;3.50;92.70;;;;;;5025169;28;20037;-76
2021/01/01 08:42:54;;;;;;;44.08;21.70;;;3.40;92.70;;;;;;5028632;28;20049;-79
2021/01/01 08:45:29;;;;;;;43.83;19.75;;;3.50;92.80;;;;;;5027223;28;20056;-78
2021/01/01 08:47:55;;;;;;;40.53;21.13;;;3.50;92.60;;;;;;5043456;28;20098;-79
2021/01/01 08:50:26;;;;;;;40.33;18.25;;;3.50;92.70;;;;;;5027611;28;20061;-79
2021/01/01 08:53:02;;;;;;;41.08;19.05;;;3.50;92.70;;;;;;5024982;28;20030;-79
2021/01/01 08:55:29;;;;;;;38.08;18.63;;;3.60;92.70;;;;;;5022066;28;20061;-80
2021/01/01 08:58:13;;;;;;;35.92;18.33;;;3.60;92.50;;;;;;5025406;28;20033;-80
2021/01/01 09:00:44;;;;;;;40.67;18.60;;;3.60;92.50;;;;;;5025125;28;20033;-78
2021/01/01 09:03:16;;;;;;;41.30;21.45;;;3.60;92.50;;;;;;5025916;28;20037;-79
2021/01/01 09:05:42;;;;;;;39.35;19.88;;;3.70;92.40;;;;;;5027801;28;20049;-78
2021/01/01 09:08:20;;;;;;;39.42;19.58;;;3.70;92.30;;;;;;5026852;28;20343;-78
2021/01/01 09:10:48;;;;;;;46.88;20.70;;;3.70;92.50;;;;;;5024468;28;20553;-79
2021/01/01 09:13:18;;;;;;;44.00;22.08;;;3.70;92.40;;;;;;5006511;28;20400;-78
2021/01/01 09:15:44;;;;;;;39.40;20.30;;;3.70;92.30;;;;;;5021882;28;20022;-78
2021/01/01 09:18:11;;;;;;;43.13;19.33;;;3.60;92.40;;;;;;5030494;28;20060;-80
2021/01/01 09:20:40;;;;;;;42.78;20.30;;;3.80;92.20;;;;;;5006192;28;20030;-80
2021/01/01 09:23:07;;;;;;;40.78;19.52;;;3.70;92.20;;;;;;5036540;28;20030;-78
2021/01/01 09:25:34;;;;;;;43.00;20.20;;;3.60;92.20;;;;;;5038826;28;20030;-77
2021/01/01 09:27:59;;;;;;;42.90;20.50;;;3.60;92.20;;;;;;5025479;28;20030;-78
2021/01/01 09:30:29;;;;;;;40.55;19.65;;;3.60;92.30;;;;;;5020851;28;20050;-78
2021/01/01 09:33:00;;;;;;;45.08;21.50;;;3.60;92.40;;;;;;5021396;28;20025;-78
2021/01/01 09:35:27;;;;;;;42.95;20.77;;;3.60;92.40;;;;;;5007066;28;20096;-78
2021/01/01 09:38:04;;;;;;;41.75;20.65;;;3.60;92.50;;;;;;5024585;28;20037;-77
2021/01/01 09:40:31;;;;;;;46.22;21.08;;;3.60;92.50;;;;;;5002103;28;20087;-79
2021/01/01 09:43:01;;;;;;;42.65;20.00;;;3.70;92.30;;;;;;5021413;28;20057;-77
2021/01/01 09:45:27;;;;;;;38.00;18.40;;;3.70;92.40;;;;;;5021192;28;20501;-79
2021/01/01 09:47:53;;;;;;;40.58;21.60;;;3.70;92.40;;;;;;5004620;28;20026;-77
2021/01/01 09:50:19;;;;;;;44.47;21.33;;;3.70;92.20;;;;;;5025987;28;20481;-78
2021/01/01 09:52:44;;;;;;;43.47;21.05;;;3.70;92.10;;;;;;5024752;28;20033;-77
2021/01/01 09:55:10;;;;;;;41.50;20.38;;;3.70;92.20;;;;;;5009663;28;20386;-77
2021/01/01 09:57:38;;;;;;;39.25;19.55;;;3.70;92.30;;;;;;5027815;28;20030;-78
2021/01/01 10:00:06;;;;;;;38.92;19.83;;;3.60;92.20;;;;;;5029044;28;20037;-79
2021/01/01 10:02:32;;;;;;;39.78;21.20;;;3.60;92.30;;;;;;5027999;28;20030;-78
2021/01/01 10:04:57;;;;;;;39.30;20.40;;;3.60;92.10;;;;;;5033904;28;20089;-79
2021/01/01 10:07:25;;;;;;;39.17;19.70;;;3.60;92.20;;;;;;5029535;28;20025;-81
2021/01/01 10:09:51;;;;;;;41.10;19.73;;;3.60;92.20;;;;;;5028656;28;20048;-78
2021/01/01 10:12:18;;;;;;;41.22;20.88;;;3.70;92.10;;;;;;5037287;28;20021;-80
2021/01/01 10:14:44;;;;;;;39.78;19.73;;;3.70;92.00;;;;;;5010078;28;20025;-77
2021/01/01 10:17:09;;;;;;;45.58;20.58;;;3.80;91.70;;;;;;5023353;28;20026;-78
2021/01/01 10:19:37;;;;;;;35.63;19.40;;;3.80;91.70;;;;;;5003735;28;20050;-77
2021/01/01 10:22:03;;;;;;;45.78;20.80;;;3.90;91.50;;;;;;5023480;28;20030;-78
2021/01/01 10:24:28;;;;;;;39.35;20.77;;;3.90;91.40;;;;;;5019538;28;20363;-78
2021/01/01 10:26:54;;;;;;;43.80;22.08;;;3.90;91.60;;;;;;5006979;28;20477;-78
2021/01/01 10:29:20;;;;;;;40.22;20.73;;;3.90;91.70;;;;;;5026987;28;20025;-78
2021/01/01 10:31:46;;;;;;;38.08;20.30;;;3.90;91.80;;;;;;5029377;28;20035;-78
2021/01/01 10:34:12;;;;;;;34.25;18.30;;;3.90;91.70;;;;;;5007904;28;20116;-78
2021/01/01 10:36:38;;;;;;;41.08;19.95;;;3.90;91.60;;;;;;5004841;28;20036;-79
2021/01/01 10:39:08;;;;;;;39.03;20.27;;;4.00;91.70;;;;;;5029274;28;20090;-79
2021/01/01 10:41:34;;;;;;;40.38;20.52;;;4.00;91.50;;;;;;5017500;28;20029;-80
2021/01/01 10:44:02;;;;;;;36.88;20.13;;;4.00;91.50;;;;;;5016574;28;20025;-78
2021/01/01 10:46:27;;;;;;;37.33;18.75;;;4.00;91.60;;;;;;5037709;28;20076;-78
2021/01/01 10:48:53;;;;;;;40.15;20.52;;;4.00;91.90;;;;;;5032427;28;20029;-80
2021/01/01 10:51:23;;;;;;;38.88;19.08;;;4.10;91.50;;;;;;5030094;28;20025;-79
2021/01/01 10:53:49;;;;;;;38.25;20.10;;;4.10;91.30;;;;;;5023791;28;20055;-75
2021/01/01 10:56:26;;;;;;;36.53;18.40;;;4.10;91.50;;;;;;5026684;28;20573;-76
2021/01/01 10:58:53;;;;;;;35.40;18.00;;;4.10;91.40;;;;;;5033640;28;20027;-76
2021/01/01 11:01:23;;;;;;;38.28;18.17;;;4.10;91.50;;;;;;5020679;28;20037;-76
2021/01/01 11:03:49;;;;;;;42.30;20.85;;;4.10;91.60;;;;;;5013128;28;20087;-77
2021/01/01 11:06:16;;;;;;;42.03;18.85;;;4.10;91.50;;;;;;5004221;28;20045;-77
2021/01/01 11:08:46;;;;;;;46.13;20.60;;;4.10;91.50;;;;;;5017898;28;20026;-75
2021/01/01 11:11:13;;;;;;;36.38;17.95;;;4.10;91.50;;;;;;5014594;28;20036;-76
2021/01/01 11:13:57;;;;;;;43.90;20.33;;;4.20;91.60;;;;;;5017112;28;20029;-77
2021/01/01 12:24:48;;;;;;;37.65;18.15;;;4.50;91.60;;;;;;5015035;28;20022;-77
2021/01/01 12:27:24;;;;;;;40.25;19.35;;;4.50;91.70;;;;;;5011704;28;20109;-77
2021/01/01 12:29:51;;;;;;;38.78;17.42;;;4.50;91.80;;;;;;5015060;28;20018;-76
2021/01/01 12:32:19;;;;;;;34.58;17.55;;;4.50;91.80;;;;;;5017470;28;20021;-76
2021/01/01 12:34:46;;;;;;;38.17;18.40;;;4.50;91.90;;;;;;5019597;28;20508;-76
2021/01/01 12:37:12;;;;;;;38.78;18.65;;;4.50;91.80;;;;;;5014461;28;20018;-76
2021/01/01 12:39:38;;;;;;;33.78;19.10;;;4.50;91.80;;;;;;5007484;28;20140;-76
2021/01/01 12:42:04;;;;;;;38.08;19.08;;;4.50;91.80;;;;;;5011103;28;20029;-76
2021/01/01 12:44:31;;;;;;;33.95;16.95;;;4.50;91.90;;;;;;4998718;28;20026;-76
2021/01/01 12:46:59;;;;;;;35.72;18.10;;;4.50;91.80;;;;;;5028988;28;20021;-76
2021/01/01 12:49:25;;;;;;;32.72;17.23;;;4.50;91.80;;;;;;4995886;28;20028;-76
2021/01/01 12:51:51;;;;;;;33.10;17.85;;;4.50;91.80;;;;;;5014948;28;20044;-76
2021/01/01 12:54:16;;;;;;;33.70;17.48;;;4.50;91.80;;;;;;5024670;28;20080;-76
2021/01/01 12:56:42;;;;;;;34.95;16.90;;;4.60;91.90;;;;;;5017530;28;20517;-75
2021/01/01 12:59:08;;;;;;;29.70;15.80;;;4.60;91.80;;;;;;5004293;28;20117;-75
2021/01/01 13:01:34;;;;;;;29.05;15.18;;;4.60;91.80;;;;;;4993388;28;20109;-76
2021/01/01 13:04:01;;;;;;;32.40;17.25;;;4.60;91.90;;;;;;5014846;28;20084;-76
2021/01/01 13:06:27;;;;;;;28.77;14.68;;;4.70;91.90;;;;;;5015268;28;20991;-77
2021/01/01 13:08:58;;;;;;;27.25;13.80;;;4.80;91.80;;;;;;5021146;28;20036;-76
2021/01/01 13:11:28;;;;;;;27.38;13.73;;;4.80;91.60;;;;;;5017003;28;20025;-76
2021/01/01 13:13:54;;;;;;;28.88;15.27;;;4.80;91.70;;;;;;5016158;28;20124;-76
2021/01/01 13:16:27;;;;;;;30.73;15.90;;;4.80;91.40;;;;;;5018431;28;20117;-76
2021/01/01 13:18:54;;;;;;;29.65;15.27;;;4.80;91.60;;;;;;5027674;28;20030;-76
2021/01/01 13:21:31;;;;;;;27.27;14.13;;;4.80;91.60;;;;;;5027637;28;20048;-76
2021/01/01 13:23:58;;;;;;;27.17;15.13;;;4.80;91.60;;;;;;5026171;28;20041;-76
2021/01/01 13:26:25;;;;;;;28.65;15.00;;;4.80;91.70;;;;;;5018049;28;20029;-75
2021/01/01 13:28:52;;;;;;;30.35;16.00;;;4.90;91.60;;;;;;5019616;28;20026;-76
2021/01/01 13:31:19;;;;;;;29.80;15.15;;;4.80;91.70;;;;;;5030632;28;20029;-76
2021/01/01 13:33:45;;;;;;;33.75;16.85;;;4.80;91.70;;;;;;5016470;28;20038;-76
2021/01/01 13:36:18;;;;;;;31.67;15.27;;;4.80;92.00;;;;;;5013213;28;20068;-78
2021/01/01 13:38:45;;;;;;;37.17;18.35;;;4.90;91.90;;;;;;5015542;28;20465;-77
2021/01/01 13:41:13;;;;;;;31.95;18.83;;;5.10;91.50;;;;;;5014587;28;20032;-78
2021/01/01 13:43:43;;;;;;;36.10;19.85;;;5.10;91.50;;;;;;5010354;28;20072;-75
2021/01/01 13:46:17;;;;;;;38.67;18.88;;;5.00;91.50;;;;;;5031878;28;20018;-77
2021/01/01 13:48:43;;;;;;;42.88;21.63;;;5.00;91.60;;;;;;5007432;28;20713;-78